Time;durP1;ratioP1;P1;durP2;ratioP2;P2;SDS_P1;SDS_P2;PMS_P1;PMS_P2;Temp;Humidity;BMP_temperature;BMP_pressure;BME280_temperature;BME280_humidity;BME280_pressure;Samples;Min_cycle;Max_cycle;Signal;HPM_P1;HPM_P2
2023/09/14 00:01:09;;;;;;;22.40;13.93;;;21.00;99.90;;;;;;5015019;28;20134;-74
2023/09/14 00:03:35;;;;;;;19.75;13.60;;;21.10;99.90;;;;;;5015063;28;20497;-73
2023/09/14 00:06:03;;;;;;;25.30;14.15;;;21.10;99.90;;;;;;4996792;28;20044;-72
2023/09/14 00:08:32;;;;;;;22.25;14.52;;;21.20;99.90;;;;;;5014793;28;20038;-74
2023/09/14 00:11:02;;;;;;;27.33;14.43;;;21.10;99.90;;;;;;5014880;28;20037;-73
2023/09/14 00:13:28;;;;;;;25.83;14.38;;;21.00;99.90;;;;;;5013955;28;20507;-72
2023/09/14 00:15:54;;;;;;;22.90;14.95;;;21.00;99.90;;;;;;5015241;28;20084;-72
2023/09/14 00:18:21;;;;;;;22.80;14.23;;;20.90;99.90;;;;;;5014545;28;20080;-73
2023/09/14 00:20:48;;;;;;;26.20;14.30;;;21.00;99.90;;;;;;5014588;28;20028;-74
2023/09/14 00:23:14;;;;;;;22.77;14.55;;;21.00;99.90;;;;;;5014432;28;20397;-73
2023/09/14 00:25:40;;;;;;;25.25;14.93;;;21.00;99.90;;;;;;5014405;28;20097;-72
2023/09/14 00:28:06;;;;;;;26.17;15.02;;;20.90;99.90;;;;;;5014378;28;20094;-73
2023/09/14 00:30:32;;;;;;;28.98;14.98;;;20.90;99.90;;;;;;4996629;28;20026;-72
2023/09/14 00:32:58;;;;;;;21.73;14.13;;;20.90;99.90;;;;;;5014614;28;20034;-75
2023/09/14 00:35:24;;;;;;;22.65;14.68;;;21.00;99.90;;;;;;5014521;28;20034;-74
2023/09/14 00:37:50;;;;;;;22.67;15.93;;;21.00;99.90;;;;;;5013882;28;20044;-72
2023/09/14 00:40:16;;;;;;;28.38;15.77;;;21.00;99.90;;;;;;5014084;28;20427;-73
2023/09/14 00:42:45;;;;;;;23.10;16.08;;;21.00;99.90;;;;;;5012996;28;20025;-73
2023/09/14 00:45:13;;;;;;;26.73;14.90;;;21.00;99.90;;;;;;4995934;28;20029;-72
2023/09/14 00:47:44;;;;;;;28.20;14.50;;;21.00;99.90;;;;;;5014070;28;20022;-72
2023/09/14 00:50:10;;;;;;;22.42;12.93;;;21.00;99.90;;;;;;5002065;28;20386;-72
2023/09/14 00:52:37;;;;;;;25.52;13.18;;;21.00;99.90;;;;;;5011743;28;20457;-73
2023/09/14 00:55:06;;;;;;;21.80;12.00;;;21.00;99.90;;;;;;4995937;28;20033;-72
2023/09/14 00:57:32;;;;;;;21.02;12.25;;;21.00;99.90;;;;;;4991879;28;20037;-73
2023/09/14 00:59:59;;;;;;;27.40;11.57;;;21.00;99.90;;;;;;4976039;28;20061;-73
2023/09/14 01:02:26;;;;;;;16.85;11.52;;;21.00;99.90;;;;;;5004422;28;20018;-72
2023/09/14 01:04:53;;;;;;;24.00;13.07;;;21.00;99.90;;;;;;5003622;28;20026;-72
2023/09/14 01:07:19;;;;;;;22.08;12.70;;;21.00;99.90;;;;;;4995027;28;20018;-73
2023/09/14 01:09:45;;;;;;;20.83;12.15;;;21.00;99.90;;;;;;4982146;28;20049;-72
2023/09/14 01:12:14;;;;;;;20.75;11.55;;;21.00;99.90;;;;;;4991566;28;20111;-73
2023/09/14 01:15:08;;;;;;;29.42;12.35;;;21.00;99.90;;;;;;4987008;28;20488;-72
2023/09/14 01:17:49;;;;;;;23.60;11.68;;;21.00;99.90;;;;;;5009363;28;20026;-74
2023/09/14 01:20:35;;;;;;;19.58;10.90;;;21.00;99.90;;;;;;4993792;28;20034;-72
2023/09/14 01:23:19;;;;;;;17.25;11.52;;;21.00;99.90;;;;;;5009392;28;20117;-72
2023/09/14 01:25:49;;;;;;;17.42;10.77;;;20.90;99.90;;;;;;5001052;28;20544;-72
2023/09/14 01:28:15;;;;;;;21.45;11.35;;;21.00;99.90;;;;;;4995673;28;20026;-73
2023/09/14 01:30:42;;;;;;;23.33;10.68;;;21.00;99.90;;;;;;5017553;28;20405;-73
2023/09/14 01:33:11;;;;;;;18.08;10.13;;;20.90;99.90;;;;;;4996319;28;20118;-72
2023/09/14 01:35:56;;;;;;;17.63;11.13;;;21.00;99.90;;;;;;4994860;28;20393;-73
2023/09/14 01:38:23;;;;;;;19.30;10.10;;;20.90;99.90;;;;;;4994387;28;20068;-73
2023/09/14 01:40:53;;;;;;;19.73;10.70;;;20.90;99.90;;;;;;4993571;28;20061;-73
2023/09/14 01:43:20;;;;;;;22.02;10.15;;;20.90;99.90;;;;;;5009905;28;20374;-72
2023/09/14 01:45:47;;;;;;;19.92;10.32;;;20.90;99.90;;;;;;4999965;28;20030;-72
2023/09/14 01:48:18;;;;;;;17.33;9.02;;;20.90;99.90;;;;;;4994615;28;20123;-72
2023/09/14 01:50:44;;;;;;;23.35;10.57;;;21.00;99.90;;;;;;4993461;28;20100;-72
2023/09/14 01:53:11;;;;;;;19.02;10.07;;;21.00;99.90;;;;;;4999964;28;20462;-74
2023/09/14 01:55:37;;;;;;;18.63;10.20;;;20.90;99.90;;;;;;5011304;28;20049;-74
2023/09/14 01:58:03;;;;;;;20.23;9.95;;;20.90;99.90;;;;;;4992574;28;20026;-74
2023/09/14 02:00:30;;;;;;;14.85;9.25;;;21.00;99.90;;;;;;4993174;28;20029;-73
2023/09/14 02:02:56;;;;;;;17.80;9.75;;;20.90;99.90;;;;;;4990309;28;20481;-72
2023/09/14 02:05:22;;;;;;;23.40;9.98;;;21.00;99.90;;;;;;5011302;28;20058;-73
2023/09/14 02:07:48;;;;;;;16.17;9.00;;;21.00;99.90;;;;;;5011327;28;20032;-74
2023/09/14 02:10:15;;;;;;;17.95;9.50;;;21.00;99.90;;;;;;4992942;28;20042;-73
2023/09/14 02:12:41;;;;;;;19.35;9.77;;;20.90;99.90;;;;;;5010755;28;20026;-73
2023/09/14 02:15:08;;;;;;;18.85;10.20;;;20.90;99.90;;;;;;4992468;28;20038;-73
2023/09/14 02:17:37;;;;;;;19.98;10.10;;;20.90;99.90;;;;;;5007061;28;20105;-73
2023/09/14 02:20:08;;;;;;;20.95;10.57;;;20.80;99.90;;;;;;5011010;28;20041;-73
2023/09/14 02:22:33;;;;;;;17.05;10.93;;;20.80;99.90;;;;;;5010763;28;20406;-73
2023/09/14 02:24:59;;;;;;;18.42;9.73;;;20.80;99.90;;;;;;5011478;28;20028;-72
2023/09/14 02:27:26;;;;;;;19.90;11.15;;;20.90;99.90;;;;;;5010532;28;20046;-72
2023/09/14 02:29:55;;;;;;;18.33;10.60;;;20.90;99.90;;;;;;5010950;28;20103;-73
2023/09/14 02:32:22;;;;;;;17.50;11.45;;;21.00;99.90;;;;;;5010962;28;20076;-73
2023/09/14 02:34:48;;;;;;;22.90;11.65;;;20.90;99.90;;;;;;4992512;28;20025;-73
2023/09/14 02:37:14;;;;;;;21.35;11.90;;;21.00;99.90;;;;;;4988798;28;20089;-73
2023/09/14 02:39:41;;;;;;;20.92;11.73;;;21.00;99.90;;;;;;4992877;28;20038;-72
2023/09/14 02:42:06;;;;;;;19.85;10.90;;;21.00;99.90;;;;;;5010907;28;20418;-73
2023/09/14 02:44:35;;;;;;;16.88;9.43;;;20.90;99.90;;;;;;4991905;28;20128;-73
2023/09/14 02:47:01;;;;;;;19.10;10.45;;;20.90;99.90;;;;;;5010853;28;20033;-74
2023/09/14 02:49:26;;;;;;;17.95;11.07;;;20.90;99.90;;;;;;4992334;28;20030;-73
2023/09/14 02:51:52;;;;;;;18.02;11.25;;;20.70;99.90;;;;;;4992931;28;20116;-74
2023/09/14 02:54:19;;;;;;;18.42;10.85;;;20.60;99.90;;;;;;4992305;28;20018;-73
2023/09/14 02:56:45;;;;;;;19.02;11.30;;;20.60;99.90;;;;;;4993895;28;20069;-74
2023/09/14 02:59:11;;;;;;;19.25;12.05;;;20.50;99.90;;;;;;4993784;28;20041;-73
2023/09/14 03:01:37;;;;;;;17.95;11.02;;;20.50;99.90;;;;;;4982816;28;20031;-74
2023/09/14 03:04:04;;;;;;;18.80;11.43;;;20.50;99.90;;;;;;4997902;28;20561;-73
2023/09/14 03:06:34;;;;;;;18.85;11.60;;;20.50;99.90;;;;;;5014682;28;20378;-73
2023/09/14 03:09:00;;;;;;;19.50;12.02;;;20.50;99.90;;;;;;4998656;28;20053;-74
2023/09/14 03:11:26;;;;;;;18.83;12.02;;;20.50;99.90;;;;;;4998412;28;20041;-73
2023/09/14 03:13:52;;;;;;;19.33;10.50;;;20.50;99.90;;;;;;4998325;28;20397;-73
2023/09/14 03:16:18;;;;;;;21.58;12.23;;;20.50;99.90;;;;;;5013387;28;20026;-75
2023/09/14 03:18:45;;;;;;;18.10;10.98;;;20.50;99.90;;;;;;4994615;28;20037;-75
2023/09/14 03:21:31;;;;;;;19.15;11.60;;;20.60;99.90;;;;;;4998216;28;20076;-74
2023/09/14 03:23:58;;;;;;;20.65;12.02;;;20.60;99.90;;;;;;4998193;28;20036;-74
2023/09/14 03:26:27;;;;;;;20.05;10.68;;;20.70;99.90;;;;;;4996396;28;20025;-74
2023/09/14 03:28:54;;;;;;;16.60;10.32;;;20.70;99.90;;;;;;4997918;28;20026;-74
2023/09/14 03:31:20;;;;;;;16.40;10.25;;;20.80;99.90;;;;;;4997710;28;20029;-73
2023/09/14 03:33:47;;;;;;;18.55;11.65;;;20.80;99.90;;;;;;4997911;28;20035;-76
2023/09/14 03:36:15;;;;;;;18.67;12.05;;;20.80;99.90;;;;;;4997512;28;20030;-71
2023/09/14 03:38:41;;;;;;;19.27;12.02;;;20.70;99.90;;;;;;5013811;28;20148;-75
2023/09/14 03:41:07;;;;;;;16.20;11.63;;;20.80;99.90;;;;;;4997568;28;20528;-72
2023/09/14 03:43:33;;;;;;;19.48;11.68;;;20.80;99.90;;;;;;5013963;28;20022;-72
2023/09/14 03:45:59;;;;;;;17.70;11.43;;;20.70;99.90;;;;;;5015006;28;20109;-71
2023/09/14 03:48:25;;;;;;;19.17;11.43;;;20.70;99.90;;;;;;4995965;28;20377;-72
2023/09/14 03:50:54;;;;;;;21.27;11.55;;;20.80;99.90;;;;;;4997090;28;20018;-72
2023/09/14 03:53:20;;;;;;;18.08;12.00;;;20.90;99.90;;;;;;4997685;28;20513;-71
2023/09/14 03:55:46;;;;;;;16.58;11.48;;;20.90;99.90;;;;;;4997294;28;20101;-72
2023/09/14 03:58:12;;;;;;;18.73;10.90;;;20.90;99.90;;;;;;5001858;28;20038;-71
2023/09/14 04:00:37;;;;;;;24.65;13.70;;;21.00;99.90;;;;;;4989843;28;20339;-72
2023/09/14 04:03:04;;;;;;;17.05;11.73;;;21.10;99.90;;;;;;5005497;28;20487;-71
2023/09/14 04:05:30;;;;;;;20.40;12.32;;;21.10;99.90;;;;;;4997447;28;20091;-73
2023/09/14 04:07:56;;;;;;;20.60;11.27;;;21.10;99.90;;;;;;4997351;28;20040;-72
2023/09/14 04:10:22;;;;;;;18.90;11.55;;;21.10;99.90;;;;;;4992643;28;20533;-71
2023/09/14 04:12:49;;;;;;;18.38;11.48;;;21.10;99.90;;;;;;5013199;28;20030;-71
2023/09/14 04:15:15;;;;;;;18.77;12.05;;;21.10;99.90;;;;;;4996260;28;20022;-73
2023/09/14 04:17:42;;;;;;;19.55;12.63;;;21.10;99.90;;;;;;4996812;28;20029;-71
2023/09/14 04:20:10;;;;;;;18.50;11.80;;;21.10;99.90;;;;;;4979954;28;20050;-71
2023/09/14 04:22:38;;;;;;;20.75;11.23;;;21.10;99.90;;;;;;4997254;28;20501;-72
2023/09/14 04:25:05;;;;;;;17.77;11.57;;;21.20;99.90;;;;;;4996838;28;20026;-72
2023/09/14 04:27:32;;;;;;;17.35;11.05;;;21.20;99.90;;;;;;4997115;28;20022;-75
2023/09/14 04:29:58;;;;;;;21.60;11.75;;;21.30;99.90;;;;;;5014277;28;20466;-73
2023/09/14 04:32:24;;;;;;;20.17;12.10;;;21.30;99.90;;;;;;4996174;28;20172;-72
2023/09/14 04:34:51;;;;;;;20.80;12.13;;;21.20;99.90;;;;;;5014283;28;20025;-73
2023/09/14 04:37:16;;;;;;;22.90;12.30;;;21.20;99.90;;;;;;4996847;28;20041;-73
2023/09/14 04:39:43;;;;;;;20.15;12.85;;;21.20;99.90;;;;;;5014010;28;20034;-73
2023/09/14 04:42:09;;;;;;;18.55;11.57;;;21.20;99.90;;;;;;4995244;28;20052;-73
2023/09/14 04:44:35;;;;;;;19.30;12.55;;;21.20;99.90;;;;;;5014452;28;20363;-73
2023/09/14 04:47:01;;;;;;;21.30;13.32;;;21.20;99.90;;;;;;5014442;28;20053;-72
2023/09/14 04:49:27;;;;;;;18.98;12.00;;;21.10;99.90;;;;;;5000917;28;20083;-73
2023/09/14 04:51:53;;;;;;;20.80;12.52;;;21.00;99.90;;;;;;4996102;28;20129;-73
2023/09/14 04:54:20;;;;;;;21.15;12.05;;;21.00;99.90;;;;;;5010101;28;20045;-73
2023/09/14 04:56:46;;;;;;;23.05;12.25;;;21.00;99.90;;;;;;4996212;28;20050;-72
2023/09/14 04:59:12;;;;;;;18.55;12.68;;;20.90;99.90;;;;;;4996006;28;20038;-72
2023/09/14 05:01:38;;;;;;;20.42;12.88;;;20.90;99.90;;;;;;4996182;28;20022;-72
2023/09/14 05:04:04;;;;;;;22.85;13.75;;;21.00;99.90;;;;;;5012366;28;20065;-73
2023/09/14 05:06:30;;;;;;;21.73;11.32;;;21.00;99.90;;;;;;4996188;28;20564;-73
2023/09/14 05:08:57;;;;;;;20.95;12.93;;;21.10;99.90;;;;;;5000779;28;20046;-72
2023/09/14 05:11:23;;;;;;;20.52;12.52;;;21.20;99.90;;;;;;4995826;28;20030;-73
2023/09/14 05:13:49;;;;;;;20.50;12.40;;;21.40;99.90;;;;;;4995686;28;20030;-72
2023/09/14 05:16:15;;;;;;;23.30;12.95;;;21.40;99.90;;;;;;4994303;28;20026;-72
2023/09/14 05:18:42;;;;;;;27.45;19.52;;;21.30;99.90;;;;;;4995101;28;20393;-72
2023/09/14 05:21:08;;;;;;;25.42;20.67;;;21.30;99.90;;;;;;5013476;28;20049;-72
2023/09/14 05:23:34;;;;;;;27.17;17.85;;;21.30;99.90;;;;;;4995805;28;20029;-72
2023/09/14 05:26:00;;;;;;;28.20;18.35;;;21.40;99.90;;;;;;5013462;28;20037;-73
2023/09/14 05:28:26;;;;;;;27.90;19.20;;;21.40;99.90;;;;;;4993732;28;20025;-72
2023/09/14 05:30:52;;;;;;;23.73;17.58;;;21.40;99.90;;;;;;4994804;28;20049;-72
2023/09/14 05:33:18;;;;;;;27.05;15.20;;;21.40;99.90;;;;;;4995689;28;20022;-73
2023/09/14 05:35:44;;;;;;;23.33;15.50;;;21.40;99.90;;;;;;4995333;28;20088;-72
2023/09/14 05:38:10;;;;;;;23.80;16.40;;;21.50;99.90;;;;;;4995014;28;20034;-72
2023/09/14 05:40:36;;;;;;;20.00;14.20;;;21.50;99.90;;;;;;4993863;28;20034;-73
2023/09/14 05:43:02;;;;;;;23.27;13.73;;;21.50;99.90;;;;;;5001739;28;20021;-72
2023/09/14 05:45:29;;;;;;;19.50;12.35;;;21.60;99.90;;;;;;5001668;28;20033;-72
2023/09/14 05:47:56;;;;;;;34.33;12.95;;;21.70;99.90;;;;;;4994997;28;20026;-73
2023/09/14 05:50:22;;;;;;;21.58;14.82;;;21.80;99.90;;;;;;4993679;28;20551;-72
2023/09/14 05:52:48;;;;;;;24.42;13.50;;;21.90;99.90;;;;;;5012867;28;20076;-73
2023/09/14 05:55:14;;;;;;;19.52;13.48;;;21.90;99.90;;;;;;4995376;28;20097;-72
2023/09/14 05:57:40;;;;;;;24.20;14.75;;;22.00;99.90;;;;;;5012679;28;20466;-72
2023/09/14 06:00:13;;;;;;;20.98;13.65;;;22.00;99.90;;;;;;4995071;28;20042;-72
2023/09/14 06:02:42;;;;;;;26.93;14.10;;;22.10;99.90;;;;;;5011073;28;20040;-73
2023/09/14 06:05:11;;;;;;;20.33;13.77;;;22.40;99.90;;;;;;4995392;28;20271;-72
2023/09/14 06:07:37;;;;;;;28.75;13.60;;;22.60;99.90;;;;;;4993949;28;20036;-73
2023/09/14 06:10:03;;;;;;;23.13;14.00;;;22.70;99.90;;;;;;5012627;28;20498;-72
2023/09/14 06:12:30;;;;;;;20.85;13.45;;;23.00;99.90;;;;;;4994836;28;20064;-72
2023/09/14 06:14:58;;;;;;;24.52;13.95;;;23.30;99.90;;;;;;5012393;28;20501;-74
2023/09/14 06:17:24;;;;;;;22.58;14.10;;;23.60;99.90;;;;;;5012738;28;20389;-72
2023/09/14 06:19:50;;;;;;;33.80;14.68;;;23.80;99.90;;;;;;5012305;28;20065;-72
2023/09/14 06:22:16;;;;;;;26.33;12.55;;;24.20;99.90;;;;;;5012562;28;20026;-73
2023/09/14 06:24:42;;;;;;;22.95;12.90;;;24.50;99.90;;;;;;5012366;28;20478;-73
2023/09/14 06:27:08;;;;;;;19.75;11.77;;;24.60;99.90;;;;;;5012408;28;20034;-73
2023/09/14 06:29:34;;;;;;;23.13;12.10;;;24.70;99.90;;;;;;5011681;28;20022;-73
2023/09/14 06:32:00;;;;;;;23.85;12.00;;;24.80;99.70;;;;;;5012640;28;20030;-74
2023/09/14 06:34:25;;;;;;;20.25;11.23;;;24.90;99.90;;;;;;5012238;28;20056;-72
2023/09/14 06:36:51;;;;;;;17.48;11.52;;;25.00;99.60;;;;;;5011977;28;20120;-71
2023/09/14 06:39:17;;;;;;;30.30;12.43;;;25.00;99.90;;;;;;5012124;28;20482;-72
2023/09/14 06:41:43;;;;;;;19.10;11.65;;;24.90;99.90;;;;;;5012445;28;20080;-71
2023/09/14 06:44:09;;;;;;;26.15;11.65;;;25.10;99.50;;;;;;5012111;28;20080;-72
2023/09/14 06:46:35;;;;;;;17.25;10.15;;;25.20;99.90;;;;;;5012365;28;20038;-72
2023/09/14 06:49:01;;;;;;;18.88;10.48;;;25.50;99.90;;;;;;5011799;28;20022;-75
2023/09/14 06:51:28;;;;;;;16.85;10.73;;;25.60;99.90;;;;;;5012430;28;20042;-75
2023/09/14 06:53:54;;;;;;;20.98;10.23;;;25.80;99.90;;;;;;5011965;28;20029;-73
2023/09/14 06:56:20;;;;;;;14.52;8.93;;;25.80;99.50;;;;;;5012012;28;20030;-72
2023/09/14 06:58:45;;;;;;;18.20;9.05;;;25.90;98.80;;;;;;5011888;28;20481;-73
2023/09/14 07:01:11;;;;;;;16.65;9.65;;;26.30;99.00;;;;;;5012111;28;20072;-74
2023/09/14 07:03:37;;;;;;;18.60;9.27;;;26.10;98.70;;;;;;5012368;28;20025;-74
2023/09/14 07:06:03;;;;;;;21.38;9.45;;;26.20;97.40;;;;;;5011978;28;20030;-73
2023/09/14 07:08:29;;;;;;;15.57;8.73;;;26.50;98.00;;;;;;5012015;28;20033;-73
2023/09/14 07:10:55;;;;;;;19.10;7.93;;;26.40;96.30;;;;;;5011978;28;20025;-74
2023/09/14 07:13:21;;;;;;;17.92;8.48;;;26.30;96.30;;;;;;5011964;28;20101;-73
2023/09/14 07:15:47;;;;;;;15.95;7.82;;;26.40;95.30;;;;;;5011775;28;20022;-74
2023/09/14 07:18:34;;;;;;;20.80;7.82;;;26.40;94.10;;;;;;5011768;28;20389;-73
2023/09/14 07:21:04;;;;;;;14.32;8.82;;;26.40;94.10;;;;;;5011922;28;20032;-74
2023/09/14 07:23:30;;;;;;;14.55;8.88;;;26.50;94.40;;;;;;5011661;28;20072;-73
2023/09/14 07:25:56;;;;;;;15.52;8.48;;;26.70;94.00;;;;;;5011971;28;20022;-73
2023/09/14 07:28:22;;;;;;;19.42;9.13;;;26.60;94.00;;;;;;5011186;28;20093;-73
2023/09/14 07:30:51;;;;;;;17.23;8.48;;;26.70;93.80;;;;;;4994246;28;20022;-73
2023/09/14 07:33:17;;;;;;;19.80;11.07;;;26.80;94.40;;;;;;5011562;28;20026;-73
2023/09/14 07:35:45;;;;;;;16.80;9.35;;;26.80;94.10;;;;;;5011836;28;20108;-73
2023/09/14 07:38:14;;;;;;;16.65;9.27;;;26.90;93.40;;;;;;5011739;28;20030;-73
2023/09/14 07:40:42;;;;;;;16.88;10.45;;;26.90;93.90;;;;;;5011597;28;20038;-73
2023/09/14 07:43:08;;;;;;;15.35;8.85;;;27.10;93.50;;;;;;4994245;28;20025;-74
2023/09/14 07:45:34;;;;;;;26.73;8.85;;;27.10;92.10;;;;;;5011304;28;20030;-73
2023/09/14 07:48:04;;;;;;;15.98;8.55;;;27.10;92.40;;;;;;4996353;28;20029;-73
2023/09/14 07:50:39;;;;;;;16.67;9.38;;;27.10;91.80;;;;;;5015053;28;20061;-73
2023/09/14 07:53:06;;;;;;;16.55;9.15;;;27.30;93.00;;;;;;5015338;28;20030;-73
2023/09/14 07:55:32;;;;;;;24.67;14.48;;;27.50;92.20;;;;;;5015061;28;20034;-74
2023/09/14 07:57:58;;;;;;;13.95;8.55;;;27.60;92.10;;;;;;5014889;28;20105;-73
2023/09/14 08:00:24;;;;;;;11.13;7.68;;;27.60;91.70;;;;;;5014884;28;20481;-73
2023/09/14 08:02:50;;;;;;;16.92;10.10;;;27.70;90.80;;;;;;5014995;28;20040;-73
2023/09/14 08:05:15;;;;;;;19.42;11.82;;;27.70;92.20;;;;;;5014924;28;20029;-73
2023/09/14 08:07:41;;;;;;;20.65;11.00;;;27.80;92.00;;;;;;5015114;28;20506;-73
2023/09/14 08:10:08;;;;;;;19.00;10.05;;;27.90;90.10;;;;;;5014663;28;20456;-73
2023/09/14 08:12:36;;;;;;;19.02;8.48;;;28.00;91.50;;;;;;5014837;28;20437;-74
2023/09/14 08:15:03;;;;;;;17.92;10.57;;;27.70;90.60;;;;;;5014539;28;20033;-73
2023/09/14 08:17:29;;;;;;;16.48;8.27;;;27.70;91.30;;;;;;5015009;28;20026;-72
2023/09/14 08:19:55;;;;;;;14.68;8.10;;;27.70;90.60;;;;;;5014028;28;20057;-72
2023/09/14 08:22:23;;;;;;;15.57;7.75;;;27.70;89.90;;;;;;5015035;28;20030;-72
2023/09/14 08:24:52;;;;;;;9.63;6.68;;;27.90;89.30;;;;;;5014503;28;20053;-72
2023/09/14 08:27:18;;;;;;;8.77;5.57;;;28.10;87.40;;;;;;5014480;28;20033;-72
2023/09/14 08:29:45;;;;;;;9.60;5.97;;;27.90;86.90;;;;;;5014398;28;20045;-72
2023/09/14 08:32:11;;;;;;;15.88;7.03;;;28.10;88.70;;;;;;5014797;28;20105;-72
2023/09/14 08:34:37;;;;;;;10.45;7.00;;;28.00;87.90;;;;;;5014217;28;20018;-71
2023/09/14 08:37:04;;;;;;;11.98;6.55;;;28.00;86.70;;;;;;5014055;28;20367;-72
2023/09/14 08:39:30;;;;;;;10.25;6.30;;;28.10;87.20;;;;;;5014432;28;20034;-72
2023/09/14 08:41:56;;;;;;;15.48;6.57;;;28.10;87.40;;;;;;5014193;28;20033;-72
2023/09/14 08:44:22;;;;;;;11.02;6.57;;;28.30;85.10;;;;;;5014023;28;20026;-72
2023/09/14 08:46:48;;;;;;;10.15;6.40;;;28.30;87.00;;;;;;5014211;28;20116;-72
2023/09/14 08:49:19;;;;;;;13.90;6.95;;;28.30;87.50;;;;;;5014159;28;20030;-72
2023/09/14 08:51:45;;;;;;;9.40;6.30;;;28.10;86.60;;;;;;5014273;28;20499;-72
2023/09/14 08:54:12;;;;;;;17.58;8.02;;;27.80;86.80;;;;;;5013980;28;20025;-72
2023/09/14 08:56:39;;;;;;;14.18;8.00;;;27.70;87.40;;;;;;5014118;28;20041;-73
2023/09/14 08:59:07;;;;;;;11.45;6.68;;;27.70;87.70;;;;;;5013088;28;20054;-72
2023/09/14 09:01:35;;;;;;;12.45;6.50;;;27.80;87.10;;;;;;5014246;28;20076;-73
2023/09/14 09:04:01;;;;;;;17.40;9.73;;;27.80;86.70;;;;;;5013589;28;20029;-72
2023/09/14 09:06:27;;;;;;;12.30;6.82;;;28.00;88.80;;;;;;5014089;28;20034;-73
2023/09/14 09:08:55;;;;;;;11.38;6.55;;;28.00;87.60;;;;;;5013718;28;20133;-72
2023/09/14 09:11:22;;;;;;;13.60;7.53;;;28.00;86.90;;;;;;5013721;28;20096;-71
2023/09/14 09:13:49;;;;;;;14.98;6.93;;;27.90;85.50;;;;;;5013702;28;20026;-72
2023/09/14 09:16:15;;;;;;;11.38;6.00;;;28.00;85.30;;;;;;4996215;28;20034;-72
2023/09/14 09:19:03;;;;;;;14.02;6.00;;;28.00;86.90;;;;;;5013528;28;20040;-72
2023/09/14 09:21:32;;;;;;;9.05;5.50;;;27.70;85.60;;;;;;5013334;28;20022;-72
2023/09/14 09:24:01;;;;;;;10.30;5.55;;;27.80;86.10;;;;;;5013623;28;20462;-73
2023/09/14 09:26:35;;;;;;;14.07;8.13;;;28.20;87.70;;;;;;5013275;28;20072;-73
2023/09/14 09:29:18;;;;;;;18.15;6.38;;;28.10;87.50;;;;;;5013355;28;20040;-74
2023/09/14 09:31:46;;;;;;;8.90;5.40;;;28.30;83.50;;;;;;5013614;28;20105;-73
2023/09/14 09:34:13;;;;;;;16.77;8.13;;;28.50;90.70;;;;;;5005186;28;20113;-72
2023/09/14 09:36:40;;;;;;;17.30;8.82;;;28.70;88.10;;;;;;5013470;28;20026;-72
2023/09/14 09:39:07;;;;;;;12.18;6.47;;;28.80;85.20;;;;;;5009103;28;20030;-73
2023/09/14 09:41:36;;;;;;;10.60;5.88;;;28.90;85.40;;;;;;5002766;28;20048;-72
2023/09/14 09:44:09;;;;;;;8.48;5.45;;;28.90;82.70;;;;;;5012961;28;20096;-73
2023/09/14 09:46:36;;;;;;;9.38;6.32;;;28.90;83.00;;;;;;5010387;28;20032;-72
2023/09/14 09:49:19;;;;;;;12.68;5.15;;;28.90;82.00;;;;;;5009529;28;20448;-72
2023/09/14 09:51:49;;;;;;;8.80;5.57;;;28.90;80.60;;;;;;4997729;28;20105;-72
2023/09/14 09:54:18;;;;;;;11.50;6.47;;;28.80;82.90;;;;;;5011682;28;20511;-73
2023/09/14 09:56:43;;;;;;;11.13;6.35;;;28.80;82.20;;;;;;5013385;28;20022;-72
2023/09/14 09:59:10;;;;;;;10.18;5.65;;;29.10;83.00;;;;;;5012926;28;20053;-73
2023/09/14 10:01:39;;;;;;;9.93;5.47;;;;;;;;;;5013219;28;20030;-72
2023/09/14 10:04:17;;;;;;;9.23;5.35;;;29.40;81.10;;;;;;5012631;28;20018;-72
2023/09/14 10:06:54;;;;;;;26.50;5.65;;;29.30;80.60;;;;;;5013261;28;20032;-73
2023/09/14 10:09:20;;;;;;;9.65;4.72;;;29.00;79.00;;;;;;5012311;28;20057;-72
2023/09/14 10:11:49;;;;;;;10.80;5.15;;;28.90;80.00;;;;;;5012032;28;20026;-73
2023/09/14 10:14:18;;;;;;;10.32;4.50;;;28.80;80.40;;;;;;5012622;28;20108;-73
2023/09/14 10:16:44;;;;;;;11.85;4.97;;;28.80;80.00;;;;;;5012628;28;20161;-73
2023/09/14 10:19:11;;;;;;;7.47;4.70;;;28.90;82.00;;;;;;5012626;28;20412;-72
2023/09/14 10:21:39;;;;;;;13.60;5.40;;;28.90;81.20;;;;;;5003650;28;20351;-73
2023/09/14 10:24:06;;;;;;;10.30;5.35;;;28.70;79.90;;;;;;5011408;28;20037;-71
2023/09/14 10:26:37;;;;;;;10.18;5.10;;;28.60;82.00;;;;;;5001474;28;20076;-72
2023/09/14 10:29:07;;;;;;;6.73;4.37;;;28.50;81.00;;;;;;5011973;28;20058;-72
2023/09/14 10:31:36;;;;;;;7.63;5.10;;;28.40;81.70;;;;;;5012400;28;20022;-73
2023/09/14 10:34:03;;;;;;;9.60;5.22;;;28.40;82.90;;;;;;5012025;28;20032;-72
2023/09/14 10:36:31;;;;;;;9.80;5.40;;;28.10;82.90;;;;;;5012762;28;20026;-73
2023/09/14 10:39:00;;;;;;;8.80;5.38;;;28.10;81.10;;;;;;5011888;28;20022;-72
2023/09/14 10:41:27;;;;;;;11.48;5.38;;;28.00;82.80;;;;;;5012585;28;20029;-72
2023/09/14 10:43:54;;;;;;;9.05;5.93;;;27.80;81.50;;;;;;5012082;28;20025;-71
2023/09/14 10:46:26;;;;;;;11.20;6.20;;;28.10;83.10;;;;;;5012256;28;20429;-74
2023/09/14 10:48:55;;;;;;;11.63;5.18;;;28.00;82.40;;;;;;5012162;28;20101;-73
2023/09/14 10:51:22;;;;;;;10.90;5.55;;;28.20;84.20;;;;;;5012176;28;20465;-74
2023/09/14 10:53:49;;;;;;;8.10;5.03;;;28.20;82.80;;;;;;5012306;28;20022;-71
2023/09/14 10:56:30;;;;;;;9.13;5.60;;;28.30;83.00;;;;;;5011974;28;20053;-72
2023/09/14 10:58:57;;;;;;;;;;;28.40;82.50;;;;;;5002982;28;20026;-73
2023/09/14 11:01:28;;;;;;;6.28;4.63;;;28.40;82.20;;;;;;5001336;28;19920;-72
2023/09/14 11:04:06;;;;;;;9.75;5.60;;;28.40;81.90;;;;;;5009714;28;20038;-72
2023/09/14 11:06:51;;;;;;;7.88;4.97;;;28.40;79.50;;;;;;5002649;28;20045;-71
2023/09/14 11:09:18;;;;;;;16.67;5.13;;;28.40;79.80;;;;;;5011479;28;20073;-72
2023/09/14 11:11:46;;;;;;;13.50;4.90;;;28.50;82.20;;;;;;5011037;28;20081;-72
2023/09/14 11:14:14;;;;;;;7.45;5.18;;;28.50;80.70;;;;;;5004772;28;20386;-72
2023/09/14 11:16:53;;;;;;;11.20;5.32;;;28.50;81.70;;;;;;5001712;28;20437;-72
2023/09/14 11:19:43;;;;;;;11.93;5.50;;;28.60;81.40;;;;;;5009370;28;20153;-73
2023/09/14 11:22:13;;;;;;;9.73;5.13;;;28.70;82.90;;;;;;5007977;28;20042;-72
2023/09/14 11:24:39;;;;;;;8.05;5.35;;;28.80;82.50;;;;;;5013692;28;20109;-73
2023/09/14 11:27:05;;;;;;;9.68;6.03;;;28.90;82.60;;;;;;5008123;28;20030;-73
2023/09/14 11:29:32;;;;;;;8.55;5.00;;;28.70;81.00;;;;;;5015738;28;20026;-73
2023/09/14 11:32:07;;;;;;;7.05;5.35;;;29.10;82.30;;;;;;5015433;28;20026;-72
2023/09/14 11:34:36;;;;;;;8.93;5.72;;;29.30;80.40;;;;;;5015689;28;20130;-73
2023/09/14 11:37:05;;;;;;;10.68;5.82;;;29.30;80.00;;;;;;5015566;28;20033;-73
2023/09/14 11:39:31;;;;;;;10.68;5.18;;;29.40;79.90;;;;;;5015365;28;20033;-72
2023/09/14 11:42:00;;;;;;;11.45;6.13;;;29.30;77.70;;;;;;5015280;28;20029;-73
2023/09/14 11:44:31;;;;;;;10.73;5.75;;;29.30;78.20;;;;;;4993693;28;20078;-73
2023/09/14 11:47:01;;;;;;;12.10;5.53;;;29.20;80.30;;;;;;5007828;28;20030;-73
2023/09/14 11:49:30;;;;;;;9.48;5.85;;;29.10;82.30;;;;;;5002250;28;20057;-73
2023/09/14 11:51:57;;;;;;;8.95;5.63;;;29.20;84.50;;;;;;5015549;28;20347;-73
2023/09/14 11:54:29;;;;;;;10.38;5.57;;;29.20;82.20;;;;;;5015306;28;20034;-73
2023/09/14 11:57:00;;;;;;;10.98;5.78;;;29.20;82.00;;;;;;5015256;28;20126;-73
2023/09/14 11:59:30;;;;;;;9.93;5.85;;;29.20;80.10;;;;;;5015254;28;20044;-73
2023/09/14 12:01:57;;;;;;;10.02;5.72;;;29.00;80.30;;;;;;5014589;28;20386;-73
2023/09/14 12:04:26;;;;;;;13.13;6.70;;;29.10;79.10;;;;;;5015234;28;20036;-73
2023/09/14 12:06:52;;;;;;;9.18;5.90;;;28.90;80.00;;;;;;5014466;28;20014;-72
2023/09/14 12:09:39;;;;;;;11.68;5.68;;;29.00;81.50;;;;;;5015056;28;20053;-72
2023/09/14 12:12:06;;;;;;;9.63;6.20;;;29.10;81.30;;;;;;5014661;28;20046;-72
2023/09/14 12:14:36;;;;;;;10.45;6.30;;;29.30;81.50;;;;;;5014737;28;20034;-73
2023/09/14 12:17:02;;;;;;;13.13;6.13;;;29.20;82.00;;;;;;5014951;28;20026;-73
2023/09/14 12:19:29;;;;;;;13.02;6.85;;;29.10;81.00;;;;;;5014537;28;20041;-73
2023/09/14 12:21:56;;;;;;;8.73;6.38;;;29.10;80.20;;;;;;5014864;28;20113;-73
2023/09/14 12:24:24;;;;;;;11.13;6.18;;;29.00;80.80;;;;;;5014974;28;20026;-72
2023/09/14 12:26:50;;;;;;;12.35;6.18;;;29.00;80.20;;;;;;5014752;28;20058;-73
2023/09/14 12:29:16;;;;;;;10.70;5.95;;;29.00;82.50;;;;;;5014261;28;20456;-72
2023/09/14 12:31:42;;;;;;;16.05;6.72;;;29.10;81.80;;;;;;5014424;28;20069;-74
2023/09/14 12:34:08;;;;;;;9.70;5.68;;;29.10;82.70;;;;;;5013446;28;20026;-73
2023/09/14 12:36:34;;;;;;;9.27;5.95;;;29.10;81.80;;;;;;5014122;28;20034;-72